sensor_id;sensor_type;location;lat;lon;timestamp;pressure;altitude;pressure_sealevel;temperature;humidity
64687;BME280;51113;53.646;-113.674;2024-02-26T00:00:26;91330.16;;;-5.23;100.00
64687;BME280;51113;53.646;-113.674;2024-02-26T00:02:55;91329.50;;;-5.30;100.00
64687;BME280;51113;53.646;-113.674;2024-02-26T00:05:23;91333.69;;;-5.36;100.00
64687;BME280;51113;53.646;-113.674;2024-02-26T00:07:52;91328.31;;;-5.51;100.00
64687;BME280;51113;53.646;-113.674;2024-02-26T00:10:21;91333.50;;;-5.58;100.00
64687;BME280;51113;53.646;-113.674;2024-02-26T00:12:50;91347.78;;;-5.75;100.00
64687;BME280;51113;53.646;-113.674;2024-02-26T00:15:18;91326.91;;;-5.82;100.00
64687;BME280;51113;53.646;-113.674;2024-02-26T00:17:47;91313.19;;;-5.86;100.00
64687;BME280;51113;53.646;-113.674;2024-02-26T00:20:16;91301.34;;;-5.97;100.00
64687;BME280;51113;53.646;-113.674;2024-02-26T00:22:45;91305.63;;;-6.09;100.00
64687;BME280;51113;53.646;-113.674;2024-02-26T00:25:13;91310.00;;;-6.16;100.00
64687;BME280;51113;53.646;-113.674;2024-02-26T00:27:42;91309.34;;;-6.24;100.00
64687;BME280;51113;53.646;-113.674;2024-02-26T00:30:12;91308.66;;;-6.31;100.00
64687;BME280;51113;53.646;-113.674;2024-02-26T00:32:41;91314.91;;;-6.33;100.00
64687;BME280;51113;53.646;-113.674;2024-02-26T00:35:10;91312.94;;;-6.31;100.00
64687;BME280;51113;53.646;-113.674;2024-02-26T00:37:38;91314.91;;;-6.33;100.00
64687;BME280;51113;53.646;-113.674;2024-02-26T00:40:07;91324.16;;;-6.27;100.00
64687;BME280;51113;53.646;-113.674;2024-02-26T00:42:36;91335.13;;;-6.33;100.00
64687;BME280;51113;53.646;-113.674;2024-02-26T00:45:05;91327.75;;;-6.35;100.00
64687;BME280;51113;53.646;-113.674;2024-02-26T00:47:34;91345.09;;;-6.38;100.00
64687;BME280;51113;53.646;-113.674;2024-02-26T00:50:02;91356.94;;;-6.39;100.00
64687;BME280;51113;53.646;-113.674;2024-02-26T00:52:31;91352.31;;;-6.42;100.00
64687;BME280;51113;53.646;-113.674;2024-02-26T00:55:00;91347.38;;;-6.48;100.00
64687;BME280;51113;53.646;-113.674;2024-02-26T00:57:28;91356.03;;;-6.44;100.00
64687;BME280;51113;53.646;-113.674;2024-02-26T00:59:57;91350.44;;;-6.46;100.00
64687;BME280;51113;53.646;-113.674;2024-02-26T01:02:27;91349.81;;;-6.42;100.00
64687;BME280;51113;53.646;-113.674;2024-02-26T01:04:55;91350.00;;;-6.43;100.00
64687;BME280;51113;53.646;-113.674;2024-02-26T01:07:25;91344.72;;;-6.54;100.00
64687;BME280;51113;53.646;-113.674;2024-02-26T01:09:54;91353.06;;;-6.53;100.00
64687;BME280;51113;53.646;-113.674;2024-02-26T01:12:22;91352.59;;;-6.62;100.00
64687;BME280;51113;53.646;-113.674;2024-02-26T01:14:51;91355.47;;;-6.58;100.00
64687;BME280;51113;53.646;-113.674;2024-02-26T01:17:20;91361.63;;;-6.54;100.00
64687;BME280;51113;53.646;-113.674;2024-02-26T01:19:49;91357.97;;;-6.58;100.00
64687;BME280;51113;53.646;-113.674;2024-02-26T01:22:18;91360.41;;;-6.52;100.00
64687;BME280;51113;53.646;-113.674;2024-02-26T01:24:46;91358.88;;;-6.53;100.00
64687;BME280;51113;53.646;-113.674;2024-02-26T01:27:15;91363.50;;;-6.49;100.00
64687;BME280;51113;53.646;-113.674;2024-02-26T01:29:46;91357.75;;;-6.57;100.00
64687;BME280;51113;53.646;-113.674;2024-02-26T01:32:15;91356.56;;;-6.54;100.00
64687;BME280;51113;53.646;-113.674;2024-02-26T01:34:44;91358.50;;;-6.68;100.00
64687;BME280;51113;53.646;-113.674;2024-02-26T01:37:13;91363.41;;;-6.73;100.00
64687;BME280;51113;53.646;-113.674;2024-02-26T01:39:41;91362.03;;;-6.87;100.00
64687;BME280;51113;53.646;-113.674;2024-02-26T01:42:10;91354.88;;;-6.90;100.00
64687;BME280;51113;53.646;-113.674;2024-02-26T01:44:39;91370.38;;;-6.87;100.00
64687;BME280;51113;53.646;-113.674;2024-02-26T01:47:11;91375.63;;;-6.88;100.00
64687;BME280;51113;53.646;-113.674;2024-02-26T01:49:40;91372.84;;;-6.98;100.00
64687;BME280;51113;53.646;-113.674;2024-02-26T01:52:10;91367.22;;;-7.00;100.00
64687;BME280;51113;53.646;-113.674;2024-02-26T01:54:40;91383.47;;;-6.96;100.00
64687;BME280;51113;53.646;-113.674;2024-02-26T01:57:10;91381.38;;;-6.99;100.00
64687;BME280;51113;53.646;-113.674;2024-02-26T01:59:40;91387.41;;;-7.00;100.00
64687;BME280;51113;53.646;-113.674;2024-02-26T02:02:10;91392.66;;;-7.02;100.00
64687;BME280;51113;53.646;-113.674;2024-02-26T02:04:40;91391.88;;;-7.02;100.00
64687;BME280;51113;53.646;-113.674;2024-02-26T02:07:09;91404.34;;;-7.07;100.00
64687;BME280;51113;53.646;-113.674;2024-02-26T02:09:37;91403.44;;;-7.13;100.00
64687;BME280;51113;53.646;-113.674;2024-02-26T02:12:07;91399.66;;;-7.22;100.00
64687;BME280;51113;53.646;-113.674;2024-02-26T02:14:35;91404.84;;;-7.35;100.00
64687;BME280;51113;53.646;-113.674;2024-02-26T02:17:04;91415.53;;;-7.40;100.00
64687;BME280;51113;53.646;-113.674;2024-02-26T02:19:33;91407.41;;;-7.42;100.00
64687;BME280;51113;53.646;-113.674;2024-02-26T02:22:02;91375.47;;;-7.66;100.00
64687;BME280;51113;53.646;-113.674;2024-02-26T02:24:30;91414.84;;;-7.47;100.00
64687;BME280;51113;53.646;-113.674;2024-02-26T02:26:59;91421.81;;;-7.49;100.00
64687;BME280;51113;53.646;-113.674;2024-02-26T02:29:28;91405.97;;;-7.74;100.00
64687;BME280;51113;53.646;-113.674;2024-02-26T02:31:56;91430.88;;;-7.66;100.00
64687;BME280;51113;53.646;-113.674;2024-02-26T02:34:26;91437.53;;;-7.72;100.00
64687;BME280;51113;53.646;-113.674;2024-02-26T02:36:55;91439.84;;;-7.70;100.00
64687;BME280;51113;53.646;-113.674;2024-02-26T02:39:23;91440.50;;;-7.82;100.00
64687;BME280;51113;53.646;-113.674;2024-02-26T02:41:52;91447.28;;;-7.82;100.00
64687;BME280;51113;53.646;-113.674;2024-02-26T02:44:21;91445.53;;;-7.82;100.00
64687;BME280;51113;53.646;-113.674;2024-02-26T02:46:49;91439.94;;;-7.84;100.00
64687;BME280;51113;53.646;-113.674;2024-02-26T02:49:20;91453.56;;;-7.91;100.00
64687;BME280;51113;53.646;-113.674;2024-02-26T02:51:49;91469.03;;;-7.88;100.00
64687;BME280;51113;53.646;-113.674;2024-02-26T02:54:17;91453.19;;;-7.95;100.00
64687;BME280;51113;53.646;-113.674;2024-02-26T02:56:46;91469.44;;;-7.91;100.00
64687;BME280;51113;53.646;-113.674;2024-02-26T02:59:15;91466.38;;;-7.99;100.00
64687;BME280;51113;53.646;-113.674;2024-02-26T03:01:44;91465.31;;;-8.17;100.00
64687;BME280;51113;53.646;-113.674;2024-02-26T03:04:12;91468.41;;;-8.15;100.00
64687;BME280;51113;53.646;-113.674;2024-02-26T03:06:41;91471.16;;;-8.23;100.00
64687;BME280;51113;53.646;-113.674;2024-02-26T03:09:09;91470.00;;;-8.20;100.00
64687;BME280;51113;53.646;-113.674;2024-02-26T03:11:38;91467.69;;;-8.22;100.00
64687;BME280;51113;53.646;-113.674;2024-02-26T03:14:08;91470.41;;;-8.23;100.00
64687;BME280;51113;53.646;-113.674;2024-02-26T03:16:38;91497.31;;;-8.24;100.00
64687;BME280;51113;53.646;-113.674;2024-02-26T03:19:07;91482.44;;;-8.32;100.00
64687;BME280;51113;53.646;-113.674;2024-02-26T03:21:36;91480.56;;;-8.36;100.00
64687;BME280;51113;53.646;-113.674;2024-02-26T03:24:05;91493.91;;;-8.36;100.00
64687;BME280;51113;53.646;-113.674;2024-02-26T03:26:33;91495.66;;;-8.36;100.00
64687;BME280;51113;53.646;-113.674;2024-02-26T03:29:02;91503.19;;;-8.36;100.00
64687;BME280;51113;53.646;-113.674;2024-02-26T03:31:31;91491.84;;;-8.52;100.00
64687;BME280;51113;53.646;-113.674;2024-02-26T03:34:00;91502.91;;;-8.60;100.00
64687;BME280;51113;53.646;-113.674;2024-02-26T03:36:29;91499.81;;;-8.62;100.00
64687;BME280;51113;53.646;-113.674;2024-02-26T03:38:57;91509.31;;;-8.64;100.00
64687;BME280;51113;53.646;-113.674;2024-02-26T03:41:27;91510.28;;;-8.65;100.00
64687;BME280;51113;53.646;-113.674;2024-02-26T03:43:55;91502.94;;;-8.66;100.00
64687;BME280;51113;53.646;-113.674;2024-02-26T03:46:24;91499.06;;;-8.69;100.00
64687;BME280;51113;53.646;-113.674;2024-02-26T03:48:53;91527.69;;;-8.70;100.00
64687;BME280;51113;53.646;-113.674;2024-02-26T03:51:22;91530.03;;;-8.75;100.00
64687;BME280;51113;53.646;-113.674;2024-02-26T03:53:50;91514.78;;;-8.80;100.00
64687;BME280;51113;53.646;-113.674;2024-02-26T03:56:18;91522.09;;;-8.72;100.00
64687;BME280;51113;53.646;-113.674;2024-02-26T03:58:48;91533.13;;;-8.73;100.00
64687;BME280;51113;53.646;-113.674;2024-02-26T04:01:17;91541.44;;;-8.72;100.00
64687;BME280;51113;53.646;-113.674;2024-02-26T04:03:45;91559.63;;;-8.77;100.00
64687;BME280;51113;53.646;-113.674;2024-02-26T04:06:13;91561.59;;;-8.86;100.00
64687;BME280;51113;53.646;-113.674;2024-02-26T04:08:42;91557.72;;;-8.88;100.00
64687;BME280;51113;53.646;-113.674;2024-02-26T04:11:11;91583.81;;;-8.83;100.00
64687;BME280;51113;53.646;-113.674;2024-02-26T04:13:40;91583.84;;;-8.89;100.00
64687;BME280;51113;53.646;-113.674;2024-02-26T04:16:08;91592.53;;;-8.85;100.00
64687;BME280;51113;53.646;-113.674;2024-02-26T04:18:37;91596.78;;;-8.86;100.00
64687;BME280;51113;53.646;-113.674;2024-02-26T04:21:07;91616.50;;;-8.83;100.00
64687;BME280;51113;53.646;-113.674;2024-02-26T04:23:35;91621.72;;;-8.84;100.00
64687;BME280;51113;53.646;-113.674;2024-02-26T04:26:04;91620.19;;;-8.85;100.00
64687;BME280;51113;53.646;-113.674;2024-02-26T04:28:33;91618.84;;;-8.94;100.00
64687;BME280;51113;53.646;-113.674;2024-02-26T04:31:02;91622.31;;;-9.08;100.00
64687;BME280;51113;53.646;-113.674;2024-02-26T04:33:34;91638.34;;;-9.09;100.00
64687;BME280;51113;53.646;-113.674;2024-02-26T04:36:04;91648.22;;;-9.15;100.00
64687;BME280;51113;53.646;-113.674;2024-02-26T04:38:33;91641.63;;;-9.22;100.00
64687;BME280;51113;53.646;-113.674;2024-02-26T04:41:01;91652.06;;;-9.25;100.00
64687;BME280;51113;53.646;-113.674;2024-02-26T04:43:30;91658.06;;;-9.26;100.00
64687;BME280;51113;53.646;-113.674;2024-02-26T04:45:59;91664.81;;;-9.27;100.00
64687;BME280;51113;53.646;-113.674;2024-02-26T04:48:27;91661.53;;;-9.34;100.00
64687;BME280;51113;53.646;-113.674;2024-02-26T04:50:56;91665.56;;;-9.39;100.00
64687;BME280;51113;53.646;-113.674;2024-02-26T04:53:25;91669.22;;;-9.49;100.00
64687;BME280;51113;53.646;-113.674;2024-02-26T04:55:54;91670.16;;;-9.56;100.00
64687;BME280;51113;53.646;-113.674;2024-02-26T04:58:22;91678.66;;;-9.64;100.00
64687;BME280;51113;53.646;-113.674;2024-02-26T05:00:51;91685.63;;;-9.59;100.00
64687;BME280;51113;53.646;-113.674;2024-02-26T05:03:20;91707.63;;;-9.61;100.00
64687;BME280;51113;53.646;-113.674;2024-02-26T05:05:49;91705.50;;;-9.64;100.00
64687;BME280;51113;53.646;-113.674;2024-02-26T05:08:18;91720.19;;;-9.61;100.00
64687;BME280;51113;53.646;-113.674;2024-02-26T05:10:46;91720.56;;;-9.64;100.00
64687;BME280;51113;53.646;-113.674;2024-02-26T05:13:14;91732.16;;;-9.63;100.00
64687;BME280;51113;53.646;-113.674;2024-02-26T05:15:46;91729.75;;;-9.85;100.00
64687;BME280;51113;53.646;-113.674;2024-02-26T05:18:18;91744.22;;;-9.87;100.00
64687;BME280;51113;53.646;-113.674;2024-02-26T05:20:47;91759.78;;;-9.98;100.00
64687;BME280;51113;53.646;-113.674;2024-02-26T05:23:15;91774.63;;;-10.03;100.00
64687;BME280;51113;53.646;-113.674;2024-02-26T05:25:48;91761.22;;;-10.17;100.00
64687;BME280;51113;53.646;-113.674;2024-02-26T05:28:16;91774.88;;;-10.26;100.00
64687;BME280;51113;53.646;-113.674;2024-02-26T05:30:48;91787.84;;;-10.22;100.00
64687;BME280;51113;53.646;-113.674;2024-02-26T05:33:17;91795.72;;;-10.25;100.00
64687;BME280;51113;53.646;-113.674;2024-02-26T05:35:47;91821.19;;;-10.28;100.00
64687;BME280;51113;53.646;-113.674;2024-02-26T05:38:16;91822.50;;;-10.32;100.00
64687;BME280;51113;53.646;-113.674;2024-02-26T05:40:44;91825.91;;;-10.40;100.00
64687;BME280;51113;53.646;-113.674;2024-02-26T05:43:14;91835.94;;;-10.40;100.00
64687;BME280;51113;53.646;-113.674;2024-02-26T05:45:46;91830.31;;;-10.42;100.00
64687;BME280;51113;53.646;-113.674;2024-02-26T05:48:14;91833.66;;;-10.35;100.00
64687;BME280;51113;53.646;-113.674;2024-02-26T05:50:42;91832.13;;;-10.36;100.00
64687;BME280;51113;53.646;-113.674;2024-02-26T05:53:11;91846.63;;;-10.31;100.00
64687;BME280;51113;53.646;-113.674;2024-02-26T05:55:40;91865.13;;;-10.32;100.00
64687;BME280;51113;53.646;-113.674;2024-02-26T05:58:08;91875.03;;;-10.46;100.00
64687;BME280;51113;53.646;-113.674;2024-02-26T06:00:37;91871.63;;;-10.59;100.00
64687;BME280;51113;53.646;-113.674;2024-02-26T06:03:05;91878.69;;;-10.69;100.00
64687;BME280;51113;53.646;-113.674;2024-02-26T06:05:34;91883.19;;;-10.80;100.00
64687;BME280;51113;53.646;-113.674;2024-02-26T06:08:03;91888.56;;;-10.83;100.00
64687;BME280;51113;53.646;-113.674;2024-02-26T06:10:32;91896.09;;;-10.97;100.00
64687;BME280;51113;53.646;-113.674;2024-02-26T06:13:01;91877.13;;;-11.21;100.00
64687;BME280;51113;53.646;-113.674;2024-02-26T06:15:30;91912.63;;;-11.18;100.00
64687;BME280;51113;53.646;-113.674;2024-02-26T06:17:58;91910.13;;;-11.32;100.00
64687;BME280;51113;53.646;-113.674;2024-02-26T06:20:27;91921.53;;;-11.30;100.00
64687;BME280;51113;53.646;-113.674;2024-02-26T06:22:56;91917.13;;;-11.43;100.00
64687;BME280;51113;53.646;-113.674;2024-02-26T06:25:24;91937.75;;;-11.55;100.00
64687;BME280;51113;53.646;-113.674;2024-02-26T06:27:54;91941.00;;;-11.69;100.00
64687;BME280;51113;53.646;-113.674;2024-02-26T06:30:23;91935.13;;;-11.77;100.00
64687;BME280;51113;53.646;-113.674;2024-02-26T06:32:52;91950.50;;;-11.80;100.00
64687;BME280;51113;53.646;-113.674;2024-02-26T06:35:21;91957.56;;;-11.83;100.00
64687;BME280;51113;53.646;-113.674;2024-02-26T06:37:49;91959.09;;;-11.97;99.90
64687;BME280;51113;53.646;-113.674;2024-02-26T06:40:20;91960.53;;;-12.02;100.00
64687;BME280;51113;53.646;-113.674;2024-02-26T06:42:49;91980.31;;;-11.93;100.00
64687;BME280;51113;53.646;-113.674;2024-02-26T06:45:18;91989.38;;;-11.92;100.00
64687;BME280;51113;53.646;-113.674;2024-02-26T06:47:47;91999.22;;;-11.90;100.00
64687;BME280;51113;53.646;-113.674;2024-02-26T06:50:16;92003.06;;;-12.02;99.73
64687;BME280;51113;53.646;-113.674;2024-02-26T06:52:45;92008.28;;;-12.12;99.81
64687;BME280;51113;53.646;-113.674;2024-02-26T06:55:14;92007.56;;;-12.21;99.68
64687;BME280;51113;53.646;-113.674;2024-02-26T06:57:43;92023.22;;;-12.27;99.11
64687;BME280;51113;53.646;-113.674;2024-02-26T07:00:12;92039.31;;;-12.29;99.66
64687;BME280;51113;53.646;-113.674;2024-02-26T07:02:43;92049.97;;;-12.35;98.98
64687;BME280;51113;53.646;-113.674;2024-02-26T07:05:12;92052.19;;;-12.41;99.46
64687;BME280;51113;53.646;-113.674;2024-02-26T07:07:41;92037.31;;;-12.65;98.51
64687;BME280;51113;53.646;-113.674;2024-02-26T07:10:09;92076.94;;;-12.54;98.21
64687;BME280;51113;53.646;-113.674;2024-02-26T07:12:40;92052.97;;;-12.79;97.86
64687;BME280;51113;53.646;-113.674;2024-02-26T07:15:09;92079.97;;;-12.75;98.19
64687;BME280;51113;53.646;-113.674;2024-02-26T07:17:38;92085.13;;;-12.76;98.61
64687;BME280;51113;53.646;-113.674;2024-02-26T07:20:11;92093.06;;;-12.73;98.45
64687;BME280;51113;53.646;-113.674;2024-02-26T07:22:40;92102.94;;;-12.87;97.97
64687;BME280;51113;53.646;-113.674;2024-02-26T07:25:10;92117.94;;;-12.95;98.00
64687;BME280;51113;53.646;-113.674;2024-02-26T07:27:41;92123.88;;;-12.96;98.39
64687;BME280;51113;53.646;-113.674;2024-02-26T07:30:10;92102.72;;;-13.17;97.58
64687;BME280;51113;53.646;-113.674;2024-02-26T07:32:39;92130.28;;;-13.10;97.92
64687;BME280;51113;53.646;-113.674;2024-02-26T07:35:08;92127.53;;;-13.23;97.96
64687;BME280;51113;53.646;-113.674;2024-02-26T07:37:36;92126.91;;;-13.25;98.04
64687;BME280;51113;53.646;-113.674;2024-02-26T07:40:06;92140.47;;;-13.36;97.71
64687;BME280;51113;53.646;-113.674;2024-02-26T07:42:36;92144.38;;;-13.33;97.77
64687;BME280;51113;53.646;-113.674;2024-02-26T07:45:05;92150.75;;;-13.39;97.46
64687;BME280;51113;53.646;-113.674;2024-02-26T07:47:34;92158.09;;;-13.37;97.68
64687;BME280;51113;53.646;-113.674;2024-02-26T07:50:03;92168.06;;;-13.46;97.10
64687;BME280;51113;53.646;-113.674;2024-02-26T07:52:32;92161.81;;;-13.58;96.89
64687;BME280;51113;53.646;-113.674;2024-02-26T07:55:01;92164.94;;;-13.56;96.56
64687;BME280;51113;53.646;-113.674;2024-02-26T07:57:33;92171.19;;;-13.52;97.28
64687;BME280;51113;53.646;-113.674;2024-02-26T08:00:03;92180.03;;;-13.74;96.25
64687;BME280;51113;53.646;-113.674;2024-02-26T08:02:36;92190.78;;;-13.73;96.55
64687;BME280;51113;53.646;-113.674;2024-02-26T08:05:05;92187.63;;;-13.91;95.18
64687;BME280;51113;53.646;-113.674;2024-02-26T08:07:33;92191.97;;;-13.93;96.03
64687;BME280;51113;53.646;-113.674;2024-02-26T08:10:02;92197.41;;;-13.98;96.44
64687;BME280;51113;53.646;-113.674;2024-02-26T08:12:31;92223.06;;;-14.14;95.65
64687;BME280;51113;53.646;-113.674;2024-02-26T08:15:00;92239.75;;;-14.40;94.53
64687;BME280;51113;53.646;-113.674;2024-02-26T08:17:29;92223.03;;;-14.56;94.25
64687;BME280;51113;53.646;-113.674;2024-02-26T08:19:58;92216.72;;;-14.68;94.50
64687;BME280;51113;53.646;-113.674;2024-02-26T08:22:27;92230.63;;;-14.83;94.18
64687;BME280;51113;53.646;-113.674;2024-02-26T08:24:56;92214.00;;;-14.83;95.77
64687;BME280;51113;53.646;-113.674;2024-02-26T08:27:24;92237.19;;;-14.82;95.03
64687;BME280;51113;53.646;-113.674;2024-02-26T08:29:53;92249.50;;;-14.98;93.98
64687;BME280;51113;53.646;-113.674;2024-02-26T08:32:22;92245.94;;;-14.96;94.21
64687;BME280;51113;53.646;-113.674;2024-02-26T08:34:50;92254.69;;;-14.92;95.47
64687;BME280;51113;53.646;-113.674;2024-02-26T08:37:19;92279.94;;;-15.05;94.38
64687;BME280;51113;53.646;-113.674;2024-02-26T08:39:47;92276.59;;;-14.95;95.02
64687;BME280;51113;53.646;-113.674;2024-02-26T08:42:16;92286.75;;;-15.07;94.48
64687;BME280;51113;53.646;-113.674;2024-02-26T08:44:45;92301.06;;;-15.09;96.10
64687;BME280;51113;53.646;-113.674;2024-02-26T08:47:14;92298.34;;;-15.15;94.57
64687;BME280;51113;53.646;-113.674;2024-02-26T08:49:45;92312.28;;;-15.22;94.37
64687;BME280;51113;53.646;-113.674;2024-02-26T08:52:13;92317.41;;;-15.24;94.11
64687;BME280;51113;53.646;-113.674;2024-02-26T08:54:42;92333.25;;;-15.25;94.23
64687;BME280;51113;53.646;-113.674;2024-02-26T08:57:11;92319.50;;;-15.47;93.67
64687;BME280;51113;53.646;-113.674;2024-02-26T08:59:40;92341.22;;;-15.49;92.97
64687;BME280;51113;53.646;-113.674;2024-02-26T09:02:09;92348.03;;;-15.51;93.42
64687;BME280;51113;53.646;-113.674;2024-02-26T09:04:37;92349.88;;;-15.53;93.91
64687;BME280;51113;53.646;-113.674;2024-02-26T09:07:06;92356.13;;;-15.66;93.27
64687;BME280;51113;53.646;-113.674;2024-02-26T09:09:35;92359.03;;;-15.71;92.91
64687;BME280;51113;53.646;-113.674;2024-02-26T09:12:03;92356.72;;;-15.82;92.29
64687;BME280;51113;53.646;-113.674;2024-02-26T09:14:32;92378.53;;;-15.76;92.95
64687;BME280;51113;53.646;-113.674;2024-02-26T09:17:01;92389.06;;;-15.92;92.23
64687;BME280;51113;53.646;-113.674;2024-02-26T09:19:30;92416.50;;;-15.84;93.28
64687;BME280;51113;53.646;-113.674;2024-02-26T09:21:59;92439.50;;;-15.82;92.89
64687;BME280;51113;53.646;-113.674;2024-02-26T09:24:27;92436.50;;;-15.85;93.20
64687;BME280;51113;53.646;-113.674;2024-02-26T09:26:56;92464.88;;;-15.78;94.13
64687;BME280;51113;53.646;-113.674;2024-02-26T09:29:25;92475.50;;;-15.86;93.66
64687;BME280;51113;53.646;-113.674;2024-02-26T09:31:54;92486.22;;;-15.95;93.13
64687;BME280;51113;53.646;-113.674;2024-02-26T09:34:22;92507.03;;;-16.15;92.08
64687;BME280;51113;53.646;-113.674;2024-02-26T09:36:51;92506.38;;;-16.27;91.84
64687;BME280;51113;53.646;-113.674;2024-02-26T09:39:26;92499.56;;;-16.25;92.77
64687;BME280;51113;53.646;-113.674;2024-02-26T09:41:56;92497.34;;;-16.38;92.55
64687;BME280;51113;53.646;-113.674;2024-02-26T09:44:25;92507.41;;;-16.49;92.28
64687;BME280;51113;53.646;-113.674;2024-02-26T09:46:56;92539.16;;;-16.52;91.92
64687;BME280;51113;53.646;-113.674;2024-02-26T09:49:26;92538.34;;;-16.62;92.12
64687;BME280;51113;53.646;-113.674;2024-02-26T09:51:56;92541.22;;;-16.67;91.83
64687;BME280;51113;53.646;-113.674;2024-02-26T09:54:27;92540.56;;;-16.59;92.91
64687;BME280;51113;53.646;-113.674;2024-02-26T09:57:00;92544.63;;;-16.58;93.00
64687;BME280;51113;53.646;-113.674;2024-02-26T09:59:39;92542.00;;;-16.57;93.32
64687;BME280;51113;53.646;-113.674;2024-02-26T10:02:15;92542.81;;;-16.66;92.89
64687;BME280;51113;53.646;-113.674;2024-02-26T10:04:44;92559.78;;;-16.52;93.84
64687;BME280;51113;53.646;-113.674;2024-02-26T10:07:18;92576.91;;;-16.49;93.69
64687;BME280;51113;53.646;-113.674;2024-02-26T10:09:47;92581.06;;;-16.59;93.08
64687;BME280;51113;53.646;-113.674;2024-02-26T10:12:16;92591.91;;;-16.60;93.50
64687;BME280;51113;53.646;-113.674;2024-02-26T10:14:45;92583.81;;;-16.72;92.33
64687;BME280;51113;53.646;-113.674;2024-02-26T10:17:14;92596.22;;;-16.72;92.81
64687;BME280;51113;53.646;-113.674;2024-02-26T10:19:43;92606.34;;;-16.84;92.44
64687;BME280;51113;53.646;-113.674;2024-02-26T10:22:12;92621.91;;;-16.82;93.17
64687;BME280;51113;53.646;-113.674;2024-02-26T10:24:40;92634.66;;;-16.87;92.79
64687;BME280;51113;53.646;-113.674;2024-02-26T10:27:09;92640.41;;;-16.86;93.02
64687;BME280;51113;53.646;-113.674;2024-02-26T10:29:38;92644.00;;;-17.00;92.73
64687;BME280;51113;53.646;-113.674;2024-02-26T10:32:06;92651.16;;;-17.07;92.80
64687;BME280;51113;53.646;-113.674;2024-02-26T10:34:35;92667.47;;;-17.04;92.85
64687;BME280;51113;53.646;-113.674;2024-02-26T10:37:07;92671.53;;;-17.24;92.36
64687;BME280;51113;53.646;-113.674;2024-02-26T10:39:37;92672.25;;;-17.33;92.51
64687;BME280;51113;53.646;-113.674;2024-02-26T10:42:12;92679.50;;;-17.41;91.90
64687;BME280;51113;53.646;-113.674;2024-02-26T10:44:41;92668.19;;;-17.55;91.44
64687;BME280;51113;53.646;-113.674;2024-02-26T10:47:11;92671.00;;;-17.59;91.52
64687;BME280;51113;53.646;-113.674;2024-02-26T10:49:47;92689.63;;;-17.65;91.57
64687;BME280;51113;53.646;-113.674;2024-02-26T10:52:18;92697.59;;;-17.61;93.27
64687;BME280;51113;53.646;-113.674;2024-02-26T10:54:48;92703.78;;;-17.56;94.27
64687;BME280;51113;53.646;-113.674;2024-02-26T10:57:18;92722.31;;;-17.71;93.39
64687;BME280;51113;53.646;-113.674;2024-02-26T10:59:48;92724.13;;;-17.73;93.40
64687;BME280;51113;53.646;-113.674;2024-02-26T11:02:18;92726.19;;;-17.78;92.77
64687;BME280;51113;53.646;-113.674;2024-02-26T11:04:46;92726.97;;;-17.89;92.81
64687;BME280;51113;53.646;-113.674;2024-02-26T11:07:16;92732.59;;;-17.87;93.47
64687;BME280;51113;53.646;-113.674;2024-02-26T11:09:46;92731.16;;;-17.89;93.15
64687;BME280;51113;53.646;-113.674;2024-02-26T11:12:21;92735.09;;;-17.87;93.45
64687;BME280;51113;53.646;-113.674;2024-02-26T11:14:51;92744.34;;;-18.00;92.94
64687;BME280;51113;53.646;-113.674;2024-02-26T11:17:27;92751.19;;;-17.92;93.41
64687;BME280;51113;53.646;-113.674;2024-02-26T11:20:00;92752.69;;;-18.12;91.79
64687;BME280;51113;53.646;-113.674;2024-02-26T11:22:31;92771.59;;;-18.22;91.15
64687;BME280;51113;53.646;-113.674;2024-02-26T11:25:00;92772.81;;;-18.28;90.75
64687;BME280;51113;53.646;-113.674;2024-02-26T11:27:48;92782.84;;;-18.18;91.51
64687;BME280;51113;53.646;-113.674;2024-02-26T11:30:18;92792.50;;;-18.26;90.91
64687;BME280;51113;53.646;-113.674;2024-02-26T11:32:48;92776.09;;;-18.27;91.48
64687;BME280;51113;53.646;-113.674;2024-02-26T11:35:17;92791.16;;;-18.30;90.66
64687;BME280;51113;53.646;-113.674;2024-02-26T11:37:56;92797.34;;;-18.25;90.78
64687;BME280;51113;53.646;-113.674;2024-02-26T11:40:26;92809.38;;;-18.43;90.07
64687;BME280;51113;53.646;-113.674;2024-02-26T11:42:55;92818.34;;;-18.53;89.36
64687;BME280;51113;53.646;-113.674;2024-02-26T11:48:14;92826.34;;;-18.49;90.25
64687;BME280;51113;53.646;-113.674;2024-02-26T11:50:50;92815.09;;;-18.64;90.35
64687;BME280;51113;53.646;-113.674;2024-02-26T11:56:19;92837.78;;;-18.59;90.36
64687;BME280;51113;53.646;-113.674;2024-02-26T11:58:48;92834.53;;;-18.71;89.85
64687;BME280;51113;53.646;-113.674;2024-02-26T12:04:24;92846.22;;;-18.73;90.40
64687;BME280;51113;53.646;-113.674;2024-02-26T12:07:02;92846.06;;;-18.83;90.04
64687;BME280;51113;53.646;-113.674;2024-02-26T12:09:39;92859.53;;;-18.87;89.99
64687;BME280;51113;53.646;-113.674;2024-02-26T12:12:10;92864.16;;;-18.82;90.81
64687;BME280;51113;53.646;-113.674;2024-02-26T12:14:52;92866.97;;;-19.11;89.41
64687;BME280;51113;53.646;-113.674;2024-02-26T12:17:25;92890.47;;;-19.05;89.81
64687;BME280;51113;53.646;-113.674;2024-02-26T12:19:54;92861.50;;;-19.27;89.58
64687;BME280;51113;53.646;-113.674;2024-02-26T12:22:25;92905.16;;;-19.15;89.07
64687;BME280;51113;53.646;-113.674;2024-02-26T12:24:59;92906.94;;;-19.17;89.17
64687;BME280;51113;53.646;-113.674;2024-02-26T12:27:29;92916.44;;;-19.23;89.08
64687;BME280;51113;53.646;-113.674;2024-02-26T12:29:58;92927.03;;;-19.21;89.36
64687;BME280;51113;53.646;-113.674;2024-02-26T12:32:27;92933.94;;;-19.26;88.99
64687;BME280;51113;53.646;-113.674;2024-02-26T12:34:56;92949.09;;;-19.31;88.72
64687;BME280;51113;53.646;-113.674;2024-02-26T12:37:26;92939.13;;;-19.42;88.64
64687;BME280;51113;53.646;-113.674;2024-02-26T12:39:55;92945.22;;;-19.35;89.50